createdAt,value
2023-01-06T00:00:31.155Z,100629.69
2023-01-06T00:04:50.928Z,100633.94
2023-01-06T00:08:55.254Z,100639.03
2023-01-06T00:12:57.042Z,100645.06
2023-01-06T00:16:59.000Z,100658.28
2023-01-06T00:21:02.038Z,100660.03
2023-01-06T00:25:04.017Z,100669.75
2023-01-06T00:29:06.076Z,100678.16
2023-01-06T00:33:08.711Z,100698.91
2023-01-06T00:37:11.078Z,100685.81
2023-01-06T00:41:32.951Z,100712.81
2023-01-06T00:45:35.533Z,100711.72
2023-01-06T00:49:37.455Z,100721.28
2023-01-06T00:53:40.833Z,100728.44
2023-01-06T00:57:42.541Z,100737.78
2023-01-06T01:01:46.268Z,100732.69
2023-01-06T01:05:48.119Z,100738.75
2023-01-06T01:09:50.176Z,100739.53
2023-01-06T01:13:51.848Z,100739.31
2023-01-06T01:17:53.859Z,100747.34
2023-01-06T01:21:55.459Z,100759.75
2023-01-06T01:25:57.875Z,100780.31
2023-01-06T01:29:59.563Z,100772.56
2023-01-06T01:34:02.066Z,100783.09
2023-01-06T01:38:03.910Z,100786.13
2023-01-06T01:42:10.698Z,100813.09
2023-01-06T01:46:14.814Z,100809.81
2023-01-06T01:50:21.845Z,100807.41
2023-01-06T01:54:28.565Z,100836.66
2023-01-06T01:58:36.714Z,100825.50
2023-01-06T02:02:39.134Z,100830.06
2023-01-06T02:06:41.693Z,100836.69
2023-01-06T02:10:44.140Z,100855.94
2023-01-06T02:14:46.162Z,100860.47
2023-01-06T02:19:18.331Z,100860.41
2023-01-06T02:23:23.092Z,100863.19
2023-01-06T02:27:45.727Z,100874.25
2023-01-06T02:32:27.300Z,100882.91
2023-01-06T02:36:45.990Z,100902.09
2023-01-06T02:41:13.880Z,100903.63
2023-01-06T02:45:35.596Z,100912.50
2023-01-06T02:50:00.419Z,100940.81
2023-01-06T02:54:14.613Z,100945.19
2023-01-06T02:58:35.094Z,100963.28
2023-01-06T03:02:45.525Z,100975.41
2023-01-06T03:06:50.543Z,100976.41
2023-01-06T03:10:55.140Z,100993.38
2023-01-06T03:14:58.869Z,101008.00
2023-01-06T03:19:00.970Z,101007.75
2023-01-06T03:23:03.494Z,100997.25
2023-01-06T03:27:06.399Z,101007.69
2023-01-06T03:31:13.019Z,101016.38
2023-01-06T03:35:36.659Z,100976.75
2023-01-06T03:40:05.445Z,100974.19
2023-01-06T03:44:16.791Z,101007.91
2023-01-06T03:48:56.229Z,101010.47
2023-01-06T03:53:22.515Z,101027.66
2023-01-06T03:57:48.853Z,101029.50
2023-01-06T04:01:51.420Z,101042.28
2023-01-06T04:05:55.492Z,101033.69
2023-01-06T04:09:58.088Z,101044.81
2023-01-06T04:14:00.878Z,101061.25
2023-01-06T04:18:04.231Z,101069.91
2023-01-06T04:22:09.941Z,101065.56
2023-01-06T04:26:12.361Z,101059.50
2023-01-06T04:30:21.209Z,101056.94
2023-01-06T04:34:23.142Z,101056.25
2023-01-06T04:38:25.339Z,101056.22
2023-01-06T04:42:27.274Z,101048.47
2023-01-06T04:46:29.266Z,101044.13
2023-01-06T04:50:30.950Z,101044.16
2023-01-06T04:54:32.926Z,101054.59
2023-01-06T04:58:36.027Z,101036.41
2023-01-06T05:02:38.008Z,101042.38
2023-01-06T05:06:40.074Z,101044.13
2023-01-06T05:10:42.055Z,101041.53
2023-01-06T05:14:43.695Z,101046.09
2023-01-06T05:18:46.012Z,101046.75
2023-01-06T05:22:47.842Z,101059.81
2023-01-06T05:26:49.775Z,101070.97
2023-01-06T05:30:52.239Z,101076.34
2023-01-06T05:34:54.243Z,101096.97
2023-01-06T05:38:56.024Z,101093.34
2023-01-06T05:42:58.689Z,101101.03
2023-01-06T05:47:00.348Z,101105.66
2023-01-06T05:51:08.260Z,101113.94
2023-01-06T05:55:10.555Z,101113.44
2023-01-06T05:59:12.560Z,101101.34
2023-01-06T06:03:14.202Z,101116.09
2023-01-06T06:07:16.335Z,101139.41
2023-01-06T06:11:19.663Z,101131.69
2023-01-06T06:15:21.801Z,101130.84
2023-01-06T06:19:23.525Z,101148.91
2023-01-06T06:23:25.771Z,101151.50
2023-01-06T06:27:28.023Z,101146.25
2023-01-06T06:31:30.073Z,101149.66
2023-01-06T06:35:31.922Z,101165.16
2023-01-06T06:39:33.877Z,101167.94
2023-01-06T06:43:35.979Z,101156.72
2023-01-06T06:47:37.794Z,101172.22
2023-01-06T06:51:39.840Z,101192.00
2023-01-06T06:55:41.778Z,101203.16
2023-01-06T06:59:43.440Z,101216.03
2023-01-06T07:03:45.968Z,101228.06
2023-01-06T07:07:47.758Z,101231.47
2023-01-06T07:11:49.732Z,101223.69
2023-01-06T07:15:51.793Z,101231.44
2023-01-06T07:19:53.477Z,101230.66
2023-01-06T07:23:55.412Z,101235.75
2023-01-06T07:27:59.277Z,101233.28
2023-01-06T07:32:01.304Z,101221.22
2023-01-06T07:36:03.346Z,101222.09
2023-01-06T07:40:05.936Z,101228.06
2023-01-06T07:44:07.627Z,101229.03
2023-01-06T07:48:10.045Z,101219.47
2023-01-06T07:52:11.706Z,101223.09
2023-01-06T07:56:14.459Z,101231.53
2023-01-06T08:00:16.534Z,101224.56
2023-01-06T08:04:18.238Z,101263.28
2023-01-06T08:08:20.214Z,101266.75
2023-01-06T08:12:21.983Z,101258.94
2023-01-06T08:16:23.936Z,101252.78
2023-01-06T08:20:25.634Z,101256.91
2023-01-06T08:24:31.708Z,101260.38
2023-01-06T08:28:33.863Z,101284.47
2023-01-06T08:32:35.843Z,101286.25
2023-01-06T08:36:38.691Z,101276.78
2023-01-06T08:40:41.438Z,101283.78
2023-01-06T08:44:43.131Z,101291.53
2023-01-06T08:48:46.247Z,101288.84
2023-01-06T08:52:48.355Z,101293.94
2023-01-06T08:56:50.387Z,101282.69
2023-01-06T09:00:52.230Z,101285.22
2023-01-06T09:04:54.263Z,101288.66
2023-01-06T09:08:57.072Z,101284.19
2023-01-06T09:12:59.220Z,101300.75
2023-01-06T09:17:01.256Z,101293.09
2023-01-06T09:21:03.681Z,101279.91
2023-01-06T09:25:06.255Z,101295.44
2023-01-06T09:29:08.396Z,101290.34
2023-01-06T09:33:10.307Z,101291.22
2023-01-06T09:37:11.955Z,101286.88
2023-01-06T09:41:37.637Z,101277.25
2023-01-06T09:45:48.688Z,101284.22
2023-01-06T09:49:57.464Z,101281.66
2023-01-06T09:54:15.645Z,101289.44
2023-01-06T09:58:21.961Z,101282.41
2023-01-06T10:02:36.913Z,101291.84
2023-01-06T10:06:48.590Z,101280.59
2023-01-06T10:11:03.580Z,101276.41
2023-01-06T10:15:14.774Z,101269.31
2023-01-06T10:19:28.392Z,101280.59
2023-01-06T10:23:47.715Z,101271.28
2023-01-06T10:28:08.972Z,101266.31
2023-01-06T10:32:16.568Z,101265.47
2023-01-06T10:36:29.154Z,101255.81
2023-01-06T10:40:32.225Z,101248.03
2023-01-06T10:44:34.240Z,101249.72
2023-01-06T10:48:36.329Z,101246.34
2023-01-06T10:52:38.761Z,101226.34
2023-01-06T10:56:45.670Z,101231.56
2023-01-06T11:01:11.860Z,101235.31
2023-01-06T11:05:16.154Z,101229.22
2023-01-06T11:09:41.142Z,101230.94
2023-01-06T11:13:49.696Z,101214.47
2023-01-06T11:17:51.754Z,101210.28
2023-01-06T11:21:53.797Z,101200.84
2023-01-06T11:26:03.798Z,101198.09
2023-01-06T11:30:27.423Z,101188.84
2023-01-06T11:34:29.805Z,101214.31
2023-01-06T11:38:31.630Z,101207.41
2023-01-06T11:42:33.806Z,101193.72
2023-01-06T11:46:37.691Z,101183.53
2023-01-06T11:50:39.765Z,101179.94
2023-01-06T11:54:42.426Z,101168.81
2023-01-06T11:59:03.463Z,101174.00
2023-01-06T12:03:10.864Z,101161.88
2023-01-06T12:07:38.689Z,101174.00
2023-01-06T12:11:47.891Z,101179.22
2023-01-06T12:16:00.001Z,101169.16
2023-01-06T12:20:05.807Z,101152.50
2023-01-06T12:24:10.220Z,101151.88
2023-01-06T12:28:28.714Z,101135.97
2023-01-06T12:32:40.935Z,101146.47
2023-01-06T12:36:57.205Z,101146.28
2023-01-06T12:41:17.050Z,101153.28
2023-01-06T12:45:28.996Z,101153.38
2023-01-06T12:49:40.100Z,101142.00
2023-01-06T12:53:47.869Z,101134.09
2023-01-06T12:57:58.115Z,101135.84
2023-01-06T13:02:18.619Z,101137.69
2023-01-06T13:06:37.155Z,101141.88
2023-01-06T13:11:16.511Z,101137.94
2023-01-06T13:15:34.212Z,101154.34
2023-01-06T13:19:41.679Z,101136.63
2023-01-06T13:24:17.746Z,101145.28
2023-01-06T13:28:37.303Z,101152.97
2023-01-06T13:33:08.276Z,101139.81
2023-01-06T13:37:37.192Z,101146.03
2023-01-06T13:41:41.254Z,101141.03
2023-01-06T13:45:48.283Z,101139.25
2023-01-06T13:49:50.771Z,101130.50
2023-01-06T13:53:54.732Z,101111.72
2023-01-06T13:57:58.903Z,101096.06
2023-01-06T14:02:00.970Z,101099.47
2023-01-06T14:06:03.864Z,101097.66
2023-01-06T14:10:27.162Z,101089.84
2023-01-06T14:14:38.533Z,101079.47
2023-01-06T14:18:47.203Z,101070.81
2023-01-06T14:23:05.905Z,101083.06
2023-01-06T14:27:12.015Z,101071.00
2023-01-06T14:31:26.467Z,101073.59
2023-01-06T14:35:44.007Z,101084.72
2023-01-06T14:39:48.850Z,101083.00
2023-01-06T14:44:26.192Z,101089.03
2023-01-06T14:48:32.447Z,101087.41
2023-01-06T14:52:47.770Z,101102.16
2023-01-06T14:56:54.959Z,101094.75
2023-01-06T15:00:57.104Z,101094.81
2023-01-06T15:04:59.474Z,101077.88
2023-01-06T15:09:17.477Z,101075.03
2023-01-06T15:13:22.999Z,101074.81
2023-01-06T15:17:24.699Z,101063.56
2023-01-06T15:21:27.577Z,101056.03
2023-01-06T15:25:32.765Z,101044.84
2023-01-06T15:29:35.564Z,101032.78
2023-01-06T15:33:40.013Z,101027.63
2023-01-06T15:37:43.361Z,101006.91
2023-01-06T15:41:45.275Z,101006.97
2023-01-06T15:45:59.946Z,100995.59
2023-01-06T15:50:05.624Z,100997.34
2023-01-06T15:54:13.760Z,100995.66
2023-01-06T15:58:27.502Z,100992.19
2023-01-06T16:02:31.156Z,100985.44
2023-01-06T16:06:37.116Z,100988.84
2023-01-06T16:10:39.308Z,100982.00
2023-01-06T16:14:46.065Z,100981.03
2023-01-06T16:18:48.241Z,100981.94
2023-01-06T16:22:55.065Z,100983.66
2023-01-06T16:27:04.387Z,100973.31
2023-01-06T16:31:12.263Z,100966.38
2023-01-06T16:35:18.198Z,100957.78
2023-01-06T16:39:20.008Z,100949.13
2023-01-06T16:43:22.011Z,100935.72
2023-01-06T16:47:23.696Z,100909.84
2023-01-06T16:51:28.928Z,100907.97
2023-01-06T16:55:31.423Z,100895.06
2023-01-06T16:59:36.301Z,100883.03
2023-01-06T17:03:38.636Z,100871.88
2023-01-06T17:07:40.605Z,100877.16
2023-01-06T17:11:42.369Z,100872.00
2023-01-06T17:15:44.844Z,100861.66
2023-01-06T17:19:46.641Z,100865.06
2023-01-06T17:23:56.838Z,100852.25
2023-01-06T17:27:58.692Z,100831.56
2023-01-06T17:32:02.977Z,100832.81
2023-01-06T17:36:06.148Z,100825.34
2023-01-06T17:40:16.988Z,100827.69
2023-01-06T17:44:27.477Z,100836.41
2023-01-06T17:48:29.509Z,100842.41
2023-01-06T17:52:37.529Z,100844.19
2023-01-06T17:56:39.637Z,100841.59
2023-01-06T18:00:41.540Z,100840.72
2023-01-06T18:04:43.656Z,100845.88
2023-01-06T18:08:46.768Z,100844.16
2023-01-06T18:12:48.796Z,100848.53
2023-01-06T18:16:54.298Z,100845.09
2023-01-06T18:21:00.872Z,100835.59
2023-01-06T18:25:02.915Z,100828.63
2023-01-06T18:29:19.503Z,100824.41
2023-01-06T18:33:21.589Z,100814.97
2023-01-06T18:37:27.767Z,100813.16
2023-01-06T18:41:29.456Z,100817.44
2023-01-06T18:45:36.107Z,100826.09
2023-01-06T18:49:38.295Z,100815.91
2023-01-06T18:53:43.420Z,100800.34
2023-01-06T18:57:51.150Z,100792.59
2023-01-06T19:01:53.603Z,100784.75
2023-01-06T19:06:10.543Z,100786.50
2023-01-06T19:10:32.626Z,100776.13
2023-01-06T19:14:48.231Z,100773.56
2023-01-06T19:18:49.966Z,100776.88
2023-01-06T19:22:55.123Z,100769.09
2023-01-06T19:26:58.916Z,100776.00
2023-01-06T19:31:03.000Z,100769.88
2023-01-06T19:35:23.800Z,100766.44
2023-01-06T19:39:30.780Z,100763.84
2023-01-06T19:43:34.890Z,100763.81
2023-01-06T19:47:39.130Z,100767.19
2023-01-06T19:51:41.137Z,100771.53
2023-01-06T19:55:43.107Z,100760.41
2023-01-06T19:59:44.855Z,100754.38
2023-01-06T20:03:48.686Z,100751.69
2023-01-06T20:07:50.466Z,100740.59
2023-01-06T20:11:52.489Z,100752.66
2023-01-06T20:15:54.259Z,100747.38
2023-01-06T20:19:56.361Z,100748.22
2023-01-06T20:23:58.562Z,100743.16
2023-01-06T20:28:00.588Z,100745.78
2023-01-06T20:32:02.412Z,100755.25
2023-01-06T20:36:04.979Z,100759.69
2023-01-06T20:40:07.693Z,100752.75
2023-01-06T20:44:09.730Z,100749.34
2023-01-06T20:48:11.469Z,100746.81
2023-01-06T20:52:13.496Z,100753.53
2023-01-06T20:56:15.378Z,100749.28
2023-01-06T21:00:17.797Z,100756.06
2023-01-06T21:04:19.574Z,100758.69
2023-01-06T21:08:21.616Z,100773.28
2023-01-06T21:12:23.387Z,100782.72
2023-01-06T21:16:25.476Z,100774.16
2023-01-06T21:20:27.269Z,100772.44
2023-01-06T21:24:29.374Z,100773.34
2023-01-06T21:28:31.120Z,100771.53
2023-01-06T21:32:33.043Z,100778.44
2023-01-06T21:36:34.794Z,100774.31
2023-01-06T21:40:36.845Z,100776.59
2023-01-06T21:44:38.549Z,100773.97
2023-01-06T21:48:40.460Z,100762.00
2023-01-06T21:52:43.419Z,100757.63
2023-01-06T21:56:45.574Z,100748.91
2023-01-06T22:00:47.210Z,100758.75
2023-01-06T22:04:51.608Z,100763.00
2023-01-06T22:08:54.407Z,100760.22
2023-01-06T22:12:59.162Z,100763.38
2023-01-06T22:17:01.270Z,100753.88
2023-01-06T22:21:03.567Z,100754.63
2023-01-06T22:25:06.317Z,100755.41
2023-01-06T22:29:08.359Z,100755.44
2023-01-06T22:33:10.132Z,100748.50
2023-01-06T22:37:12.203Z,100752.84
2023-01-06T22:41:14.023Z,100757.09
2023-01-06T22:45:16.177Z,100755.34
2023-01-06T22:49:17.893Z,100752.78
2023-01-06T22:53:19.839Z,100769.88
2023-01-06T22:57:21.601Z,100763.00
2023-01-06T23:01:23.979Z,100766.69
2023-01-06T23:05:25.835Z,100763.44
2023-01-06T23:09:27.772Z,100769.41
2023-01-06T23:13:30.639Z,100768.75
2023-01-06T23:17:32.984Z,100775.44
2023-01-06T23:21:35.211Z,100793.34
2023-01-06T23:25:37.225Z,100792.56
2023-01-06T23:29:38.966Z,100785.56
2023-01-06T23:33:43.663Z,100789.84
2023-01-06T23:37:45.413Z,100796.78
2023-01-06T23:41:48.425Z,100790.75
2023-01-06T23:45:50.127Z,100796.56
2023-01-06T23:49:52.091Z,100795.66
2023-01-06T23:53:54.059Z,100793.03
2023-01-06T23:57:55.756Z,100801.59
